Accueil
METAR-TAF:

METAR-TAF

Aéroports :

Aéroport international de Malé

Malé, Maldives

latitude: 04-12N, longitude: 073-32E, altitude: 2 m

Observation

Le bulletin a été fait il y a 1 heure et 6 minutes, à 10:00 UTC
Vent 8 kt de est/nord-est
Température 31°C
Humidité 66%
Pression 1011 hPa
Visibilité 10 km ou plus
Quelques nuages à une hauteur de 1800 ft
Quelques nuages à une hauteur de 1900 ft, Cumulonimbus.

METAR: VRMM 161000Z 07008KT 9999 FEW018 FEW019CB 31/24 Q1011 CB ESE,SE NOSIG

Heure: 16:06 (11:06 UTC)

Prévision

Le bulletin a été fait il y a 6 heures et 6 minutes, à 05:00 UTC
Prévision valable du 16 à 06 UTC au 17 à 12 UTC
Vent 9 kt de est/nord-est
Visibilité: 8000 m
Quelques nuages à une hauteur de 1900 ft
Temporairement
du 16 à 10 UTC au 16 à 18 UTC
Visibilité: 5000 m
Nuages épars à une hauteur de 1800 ft, Cumulonimbus.
orage, pluie faible

TAF: VRMM 160500Z 1606/1712 07009KT 8000 FEW019 TEMPO 1610/1618 5000 -TSRA SCT018CB

Observations et prévisions météorologiques de plus de 4000 aéroports (messages METAR et TAF).

Les stations disponibles sont représentées par des disques jaunes et rouges sur la carte.

Passer la souris dessus pour voir le nom de la station.

Cliquer dessus pour voir les observations et prévisions météorologiques.

Pour changer de carte: cliquez sur les boutons verts avec une croix noire pour zoomer, sur le bouton vert avec un tiret pour effectuer un zoom arrière, ou sur les flèches vertes pour les cartes adjacentes.


METAR-TAF: